Time;durP1;ratioP1;P1;durP2;ratioP2;P2;SDS_P1;SDS_P2;PMS_P1;PMS_P2;Temp;Humidity;BMP_temperature;BMP_pressure;BME280_temperature;BME280_humidity;BME280_pressure;Samples;Min_cycle;Max_cycle;Signal;HPM_P1;HPM_P2
2021/07/12 00:02:16;;;;;;;6.15;3.30;;;;;;;29.35;28.55;100912.63;143720;601;48013;-92
2021/07/12 00:04:44;;;;;;;4.72;3.72;;;;;;;29.36;28.46;100928.09;143736;586;46002;-93
2021/07/12 00:07:11;;;;;;;6.32;3.78;;;;;;;29.36;28.66;100921.78;143734;589;45010;-92
2021/07/12 00:09:38;;;;;;;4.35;3.60;;;;;;;29.39;27.51;100926.66;143734;586;47006;-92
2021/07/12 00:12:05;;;;;;;4.57;3.40;;;;;;;29.41;26.83;100918.81;143730;656;46020;-93
2021/07/12 00:14:33;;;;;;;4.78;3.40;;;;;;;29.41;25.98;100911.34;143731;585;48004;-95
2021/07/12 00:17:00;;;;;;;5.65;3.42;;;;;;;29.44;26.10;100912.66;143733;574;45010;-93
2021/07/12 00:19:27;;;;;;;6.82;3.37;;;;;;;29.46;26.31;100916.75;143735;577;47002;-93
2021/07/12 00:21:54;;;;;;;3.80;3.40;;;;;;;29.48;26.24;100917.22;143725;567;48004;-92
2021/07/12 00:24:22;;;;;;;4.30;3.00;;;;;;;29.50;27.35;100925.22;143733;578;47004;-91
2021/07/12 00:26:49;;;;;;;7.22;3.90;;;;;;;29.49;27.37;100927.16;143733;573;45923;-95
2021/07/12 00:29:16;;;;;;;4.20;3.62;;;;;;;29.47;27.15;100923.91;143735;600;47004;-91
2021/07/12 00:31:44;;;;;;;6.43;3.40;;;;;;;29.46;27.56;100922.28;143728;601;49013;-93
2021/07/12 00:34:11;;;;;;;8.50;4.25;;;;;;;29.48;26.81;100925.50;143735;593;46002;-92
2021/07/12 00:36:38;;;;;;;5.32;3.85;;;;;;;29.48;27.29;100928.28;143734;576;46004;-91
2021/07/12 00:39:06;;;;;;;4.80;4.10;;;;;;;29.50;27.70;100922.44;143736;572;47002;-92
2021/07/12 00:41:34;;;;;;;5.25;4.00;;;;;;;29.49;27.07;100923.59;143732;578;47012;-92
2021/07/12 00:44:01;;;;;;;4.70;3.53;;;;;;;29.46;26.93;100918.69;143735;650;47002;-91
2021/07/12 00:46:28;;;;;;;4.82;3.55;;;;;;;29.46;27.50;100927.00;143731;639;47002;-91
2021/07/12 00:48:56;;;;;;;6.68;4.20;;;;;;;29.43;27.45;100934.00;143735;569;48004;-92
2021/07/12 00:51:23;;;;;;;8.23;4.03;;;;;;;29.42;27.29;100934.28;143733;572;49014;-87
2021/07/12 00:53:50;;;;;;;5.55;3.83;;;;;;;29.38;28.23;100936.91;143736;599;46013;-90
2021/07/12 00:56:18;;;;;;;5.32;4.00;;;;;;;29.36;28.46;100933.62;143729;640;49004;-90
2021/07/12 00:58:45;;;;;;;6.97;4.05;;;;;;;29.31;28.76;100931.81;143738;585;47002;-90
2021/07/12 01:01:13;;;;;;;12.10;3.87;;;;;;;29.28;29.23;100939.94;143736;610;46012;-91
2021/07/12 01:03:40;;;;;;;7.68;4.10;;;;;;;29.25;29.30;100932.28;143731;633;47002;-91
2021/07/12 01:06:07;;;;;;;5.15;3.65;;;;;;;29.23;29.04;100942.84;143732;645;48004;-90
2021/07/12 01:08:35;;;;;;;10.05;4.15;;;;;;;29.22;29.15;100935.69;143737;573;47004;-90
2021/07/12 01:11:41;;;;;;;6.12;4.15;;;;;;;29.22;28.67;100927.38;143735;580;46010;-91
2021/07/12 01:14:29;;;;;;;10.23;3.97;;;;;;;29.19;29.51;100932.41;143731;611;49008;-90
2021/07/12 01:17:44;;;;;;;8.13;4.47;;;;;;;29.20;30.08;100930.50;143734;610;45925;-89
2021/07/12 01:21:03;;;;;;;5.20;3.92;;;;;;;29.17;29.74;100923.62;143732;593;48000;-89
2021/07/12 01:24:07;;;;;;;7.47;4.30;;;;;;;29.22;29.65;100922.66;143734;629;47009;-90
2021/07/12 01:27:16;;;;;;;5.90;4.65;;;;;;;29.21;30.17;100921.06;143736;586;46004;-90
2021/07/12 01:30:09;;;;;;;4.47;4.05;;;;;;;29.22;30.55;100921.84;143729;597;47008;-90
2021/07/12 01:33:36;;;;;;;7.68;5.37;;;;;;;29.22;30.37;100930.94;143736;598;47002;-90
2021/07/12 01:36:25;;;;;;;6.05;4.47;;;;;;;29.23;29.88;100923.50;143732;568;47004;-89
2021/07/12 01:39:40;;;;;;;4.90;4.37;;;;;;;29.20;29.68;100919.41;143735;580;47002;-91
2021/07/12 01:42:12;;;;;;;4.75;4.15;;;;;;;29.24;30.28;100922.34;143734;568;45011;-88
2021/07/12 01:45:06;;;;;;;5.72;4.87;;;;;;;29.25;29.66;100922.03;143737;594;47004;-90
2021/07/12 01:47:42;;;;;;;6.68;4.70;;;;;;;29.27;29.88;100911.44;143734;598;47010;-91
2021/07/12 01:50:45;;;;;;;7.37;4.78;;;;;;;29.27;29.55;100916.97;143734;600;47005;-92
2021/07/12 01:53:57;;;;;;;8.38;4.62;;;;;;;29.21;30.96;100923.81;143734;584;46000;-89
2021/07/12 01:56:34;;;;;;;6.18;5.35;;;;;;;29.16;31.13;100910.12;143738;593;46016;-91
2021/07/12 01:59:14;;;;;;;6.85;5.22;;;;;;;29.14;31.76;100917.94;143734;590;47008;-91
2021/07/12 02:01:43;;;;;;;5.70;5.10;;;;;;;29.11;32.22;100910.25;143734;569;47002;-91
2021/07/12 02:04:12;;;;;;;6.65;5.25;;;;;;;29.10;32.12;100916.94;143730;579;49009;-92
2021/07/12 02:06:41;;;;;;;5.72;5.00;;;;;;;29.10;31.77;100917.75;143737;602;47006;-89
2021/07/12 02:09:13;;;;;;;6.03;5.18;;;;;;;29.07;31.47;100914.81;143722;572;51002;-93
2021/07/12 02:11:45;;;;;;;7.25;4.85;;;;;;;29.09;31.76;100920.81;143733;605;47004;-92
2021/07/12 02:14:17;;;;;;;7.65;5.20;;;;;;;29.11;32.17;100924.94;143735;610;45010;-90
2021/07/12 02:16:47;;;;;;;8.75;5.68;;;;;;;29.08;32.57;100925.56;143737;580;47004;-90
2021/07/12 02:19:16;;;;;;;6.37;5.75;;;;;;;29.08;33.07;100924.72;143734;593;47021;-89
2021/07/12 02:21:46;;;;;;;8.55;5.82;;;;;;;29.04;32.89;100925.37;143734;650;46013;-90
2021/07/12 02:24:18;;;;;;;8.18;5.70;;;;;;;29.03;33.26;100928.47;143733;613;46008;-90
2021/07/12 02:26:46;;;;;;;5.93;5.40;;;;;;;29.04;32.91;100924.56;143735;604;47002;-91
2021/07/12 02:29:15;;;;;;;6.22;5.62;;;;;;;29.03;33.17;100932.03;143734;600;47008;-88
2021/07/12 02:31:43;;;;;;;7.35;6.28;;;;;;;29.02;33.41;100927.66;143733;602;47004;-90
2021/07/12 02:34:11;;;;;;;7.80;6.18;;;;;;;29.03;33.49;100928.47;143733;608;48011;-89
2021/07/12 02:36:38;;;;;;;8.25;5.50;;;;;;;29.02;32.93;100922.13;143728;684;51000;-90
2021/07/12 02:39:10;;;;;;;6.82;5.65;;;;;;;29.03;33.36;100920.16;143732;628;47010;-91
2021/07/12 02:41:38;;;;;;;6.80;5.10;;;;;;;29.02;33.09;100926.81;143736;608;46011;-90
2021/07/12 02:44:08;;;;;;;8.65;5.12;;;;;;;29.00;32.98;100924.41;143732;713;46000;-86
2021/07/12 02:46:35;;;;;;;13.02;5.95;;;;;;;29.03;32.50;100926.50;143736;587;47002;-90
2021/07/12 02:49:02;;;;;;;9.05;5.35;;;;;;;29.06;32.58;100930.59;143733;596;47011;-91
2021/07/12 02:51:34;;;;;;;10.80;5.32;;;;;;;29.07;32.37;100928.63;143734;631;46929;-92
2021/07/12 02:54:04;;;;;;;12.07;5.60;;;;;;;29.05;32.46;100921.47;143734;605;45923;-89
2021/07/12 02:56:31;;;;;;;7.45;5.40;;;;;;;29.07;31.82;100928.63;143728;620;49000;-94
2021/07/12 02:58:58;;;;;;;8.02;5.62;;;;;;;29.05;32.28;100935.28;143734;572;46013;-91
2021/07/12 03:01:26;;;;;;;8.40;5.37;;;;;;;29.05;32.78;100932.53;143731;640;49005;-90
2021/07/12 03:03:54;;;;;;;12.52;5.87;;;;;;;29.04;32.58;100930.91;143734;586;45572;-91
2021/07/12 03:06:27;;;;;;;10.77;7.18;;;;;;;29.07;32.88;100934.16;143737;606;47002;-89
2021/07/12 03:09:40;;;;;;;17.58;6.70;;;;;;;29.02;33.82;100935.13;143733;606;47010;-91
2021/07/12 03:12:42;;;;;;;12.60;5.90;;;;;;;28.97;34.00;100935.25;143732;570;48928;-91
2021/07/12 03:15:12;;;;;;;10.25;5.53;;;;;;;28.99;33.35;100944.03;143727;577;50004;-91
2021/07/12 03:17:45;;;;;;;6.12;5.40;;;;;;;29.02;34.24;100940.66;143736;585;47006;-90
2021/07/12 03:20:13;;;;;;;10.82;5.90;;;;;;;28.96;34.15;100937.22;143734;610;46011;-90
2021/07/12 03:22:42;;;;;;;10.88;5.32;;;;;;;28.96;34.50;100939.97;143735;596;46015;-91
2021/07/12 03:25:12;;;;;;;13.40;6.28;;;;;;;28.97;34.16;100947.16;143725;593;49002;-90
2021/07/12 03:27:40;;;;;;;9.57;5.82;;;;;;;28.94;34.30;100941.44;143735;580;47004;-89
2021/07/12 03:30:10;;;;;;;16.58;6.07;;;;;;;28.92;34.71;100938.97;143736;584;46010;-91
2021/07/12 03:32:38;;;;;;;11.93;5.32;;;;;;;28.95;34.31;100943.03;143735;599;47002;-91
2021/07/12 03:35:06;;;;;;;10.00;5.62;;;;;;;28.96;34.24;100948.28;143735;597;46008;-91
2021/07/12 03:37:34;;;;;;;11.50;5.62;;;;;;;28.95;34.82;100954.94;143738;614;46014;-91
2021/07/12 03:40:02;;;;;;;12.98;6.32;;;;;;;28.91;33.69;100958.66;143733;620;47011;-91
2021/07/12 03:42:29;;;;;;;16.67;6.57;;;;;;;28.91;32.83;100958.66;143734;573;47002;-90
2021/07/12 03:44:56;;;;;;;16.62;6.22;;;;;;;28.91;32.61;100967.75;143726;573;50004;-92
2021/07/12 03:47:28;;;;;;;17.40;6.20;;;;;;;28.94;33.27;100969.09;143738;570;46008;-91
2021/07/12 03:50:03;;;;;;;13.32;5.85;;;;;;;28.93;33.15;100968.25;143733;597;48008;-91
2021/07/12 03:52:34;;;;;;;14.18;5.43;;;;;;;28.97;33.40;100965.66;143734;602;47004;-89
2021/07/12 03:55:01;;;;;;;11.25;6.05;;;;;;;28.98;33.80;100967.31;143731;606;47008;-90
2021/07/12 03:57:28;;;;;;;10.93;5.35;;;;;;;28.96;34.29;100969.56;143737;591;47002;-90
2021/07/12 03:59:55;;;;;;;11.55;5.50;;;;;;;28.94;34.45;100969.09;143734;567;47010;-89
2021/07/12 04:02:22;;;;;;;16.40;5.25;;;;;;;28.89;34.29;100970.84;143736;598;46004;-89
2021/07/12 04:04:49;;;;;;;9.55;5.45;;;;;;;28.93;34.37;100976.56;143736;582;45010;-90
2021/07/12 04:07:16;;;;;;;12.32;5.62;;;;;;;28.97;34.45;100973.97;143735;678;49009;-89
2021/07/12 04:09:43;;;;;;;13.07;5.43;;;;;;;28.98;34.14;100972.84;143721;595;50006;-90
2021/07/12 04:12:10;;;;;;;13.13;5.55;;;;;;;28.98;34.76;100973.66;143734;662;47002;-89
2021/07/12 04:14:36;;;;;;;14.68;5.57;;;;;;;29.00;34.43;100976.94;143732;579;46004;-89
2021/07/12 04:17:03;;;;;;;17.10;5.45;;;;;;;28.99;33.66;100971.69;143734;659;49006;-91
2021/07/12 04:19:30;;;;;;;11.20;6.10;;;;;;;29.00;34.07;100978.88;143735;598;47002;-91
2021/07/12 04:21:57;;;;;;;10.38;5.30;;;;;;;29.04;34.08;100977.91;143735;605;46002;-91
2021/07/12 04:24:23;;;;;;;14.87;5.72;;;;;;;29.12;33.00;100981.03;143736;602;46004;-91
2021/07/12 04:26:50;;;;;;;12.52;5.55;;;;;;;29.17;33.47;100978.94;143740;604;46004;-91
2021/07/12 04:29:17;;;;;;;17.55;6.30;;;;;;;29.20;34.95;100980.28;143733;608;47008;-90
2021/07/12 04:31:44;;;;;;;14.65;5.50;;;;;;;29.20;34.27;100980.28;143725;637;49004;-88
2021/07/12 04:34:11;;;;;;;13.27;5.47;;;;;;;29.23;34.79;100987.09;143734;590;45995;-89
2021/07/12 04:36:38;;;;;;;7.82;5.22;;;;;;;29.24;34.92;100981.25;143737;635;46015;-90
2021/07/12 04:39:04;;;;;;;14.60;5.75;;;;;;;29.27;35.24;100977.84;143734;588;46012;-91
2021/07/12 04:41:31;;;;;;;14.87;6.40;;;;;;;29.28;35.31;100987.78;143730;609;47002;-91
2021/07/12 04:43:58;;;;;;;12.37;7.47;;;;;;;29.31;34.80;100987.13;143738;567;45010;-90
2021/07/12 04:46:25;;;;;;;12.00;6.22;;;;;;;29.32;34.88;100985.19;143732;626;48004;-92
2021/07/12 04:48:52;;;;;;;11.02;6.05;;;;;;;29.37;34.86;100990.59;143735;607;46028;-89
2021/07/12 04:51:19;;;;;;;19.17;6.87;;;;;;;29.43;33.47;100992.09;143733;572;47014;-91
2021/07/12 04:53:46;;;;;;;13.98;6.62;;;;;;;29.47;33.57;100995.03;143734;587;46008;-90
2021/07/12 04:56:13;;;;;;;17.23;6.62;;;;;;;29.52;32.06;100996.81;143737;580;47006;-90
2021/07/12 04:58:45;;;;;;;21.80;6.97;;;;;;;29.55;32.62;101001.72;143732;640;47008;-91
2021/07/12 05:01:13;;;;;;;10.18;6.47;;;;;;;29.58;34.06;101001.88;143734;647;47004;-91
2021/07/12 05:03:42;;;;;;;15.88;6.40;;;;;;;29.59;33.50;101000.75;143734;584;46002;-91
2021/07/12 05:06:09;;;;;;;11.57;5.90;;;;;;;29.63;33.96;101006.47;143738;594;46006;-89
2021/07/12 05:08:36;;;;;;;12.98;5.87;;;;;;;29.64;33.57;101000.63;143731;578;48008;-89
2021/07/12 05:11:03;;;;;;;11.32;5.68;;;;;;;29.69;33.55;101007.94;143737;569;46013;-89
2021/07/12 05:13:31;;;;;;;15.57;5.70;;;;;;;29.72;32.38;101004.53;143729;629;47002;-88
2021/07/12 05:15:57;;;;;;;9.45;5.55;;;;;;;29.77;32.29;101004.38;143734;586;49008;-92
2021/07/12 05:18:25;;;;;;;16.27;5.62;;;;;;;29.84;32.43;101006.69;143730;580;47012;-90
2021/07/12 05:20:52;;;;;;;9.15;5.12;;;;;;;29.86;32.75;101003.56;143735;664;46002;-92
2021/07/12 05:23:20;;;;;;;9.18;5.78;;;;;;;29.89;33.23;101011.25;143730;590;48002;-92
2021/07/12 05:25:47;;;;;;;12.73;5.57;;;;;;;29.93;33.39;101003.94;143737;584;47004;-93
2021/07/12 05:28:13;;;;;;;13.60;6.53;;;;;;;29.96;32.95;100995.00;143735;600;46002;-90
2021/07/12 05:30:40;;;;;;;14.90;5.53;;;;;;;30.03;32.53;101006.41;143729;593;48008;-92
2021/07/12 05:33:08;;;;;;;9.55;5.68;;;;;;;30.08;33.70;101011.00;143731;598;45922;-90
2021/07/12 05:35:35;;;;;;;14.65;5.97;;;;;;;30.11;33.80;101010.31;143733;609;47006;-91
2021/07/12 05:38:03;;;;;;;8.80;5.07;;;;;;;30.15;33.32;101013.28;143726;603;47008;-90
2021/07/12 05:40:31;;;;;;;9.85;5.30;;;;;;;30.18;32.91;101007.09;143734;586;46005;-90
2021/07/12 05:42:58;;;;;;;6.90;5.10;;;;;;;30.21;33.23;101012.78;143732;572;46004;-90
2021/07/12 05:45:25;;;;;;;12.82;5.47;;;;;;;30.26;34.37;101009.03;143734;568;47004;-93
2021/07/12 05:47:53;;;;;;;11.02;5.45;;;;;;;30.30;34.14;101010.00;143728;672;47002;-91
2021/07/12 05:50:20;;;;;;;7.05;5.82;;;;;;;30.33;33.89;101003.81;143733;701;46002;-90
2021/07/12 05:52:47;;;;;;;12.25;5.90;;;;;;;30.36;33.46;101002.34;143728;620;47002;-90
2021/07/12 05:55:14;;;;;;;11.15;5.82;;;;;;;30.38;33.16;101008.38;143734;578;47002;-90
2021/07/12 05:57:41;;;;;;;12.15;6.35;;;;;;;30.45;33.58;101013.41;143728;604;47014;-91
2021/07/12 06:00:11;;;;;;;14.00;5.95;;;;;;;30.50;33.26;101007.72;143731;595;47004;-90
2021/07/12 06:02:38;;;;;;;15.60;6.60;;;;;;;30.53;33.28;101007.88;143732;610;45924;-88
2021/07/12 06:05:06;;;;;;;13.70;6.12;;;;;;;30.52;32.80;101011.78;143735;567;47004;-91
2021/07/12 06:07:33;;;;;;;13.25;8.02;;;;;;;30.54;32.63;101016.97;143734;599;46012;-91
2021/07/12 06:10:00;;;;;;;12.65;7.43;;;;;;;30.58;32.47;101015.22;143732;590;47002;-90
2021/07/12 06:12:27;;;;;;;15.80;7.15;;;;;;;30.62;33.18;101016.19;143730;586;46004;-90
2021/07/12 06:14:54;;;;;;;15.98;7.47;;;;;;;30.68;32.65;101020.44;143736;608;46004;-91
2021/07/12 06:17:22;;;;;;;18.65;7.85;;;;;;;30.73;32.51;101018.62;143728;605;47010;-89
2021/07/12 06:19:49;;;;;;;15.05;6.90;;;;;;;30.78;32.82;101024.00;143732;590;47002;-88
2021/07/12 06:22:17;;;;;;;17.15;7.47;;;;;;;30.77;33.06;101025.97;143731;585;45925;-90
2021/07/12 06:24:43;;;;;;;11.50;6.90;;;;;;;30.83;33.25;101026.59;143734;645;47004;-90
2021/07/12 06:27:10;;;;;;;12.88;6.78;;;;;;;30.78;32.60;101029.53;143715;590;48004;-88
2021/07/12 06:29:38;;;;;;;13.50;6.93;;;;;;;30.80;31.74;101025.28;143715;568;50004;-88
2021/07/12 06:32:05;;;;;;;14.52;7.05;;;;;;;30.88;31.52;101026.44;143732;574;46000;-91
2021/07/12 06:34:32;;;;;;;12.75;8.00;;;;;;;30.96;31.98;101028.34;143734;599;47004;-89
2021/07/12 06:36:59;;;;;;;8.48;5.28;;;;;;;30.90;32.13;101024.13;143729;585;47012;-89
2021/07/12 06:39:26;;;;;;;8.38;5.25;;;;;;;30.87;31.62;101024.81;143728;621;50002;-91
2021/07/12 06:41:53;;;;;;;7.22;5.07;;;;;;;30.88;31.24;101023.66;143731;567;46004;-90
2021/07/12 06:44:20;;;;;;;10.63;5.05;;;;;;;30.87;31.12;101026.75;143731;637;49004;-91
2021/07/12 06:46:47;;;;;;;6.95;4.82;;;;;;;30.96;31.74;101035.88;143726;601;49012;-89
2021/07/12 06:49:13;;;;;;;12.02;5.07;;;;;;;30.97;30.96;101029.19;143731;610;48002;-90
2021/07/12 06:51:40;;;;;;;7.75;4.95;;;;;;;30.96;30.53;101027.56;143730;567;47002;-90
2021/07/12 06:54:07;;;;;;;10.73;5.12;;;;;;;31.00;29.72;101036.81;143735;591;47002;-89
2021/07/12 08:24:47;;;;;;;5.05;3.85;;;;;;;33.59;23.51;101035.84;143728;593;47004;-66
2021/07/12 08:27:14;;;;;;;7.15;4.85;;;;;;;33.65;24.21;101028.03;143730;589;47006;-66
2021/07/12 08:29:40;;;;;;;6.10;4.28;;;;;;;33.57;24.05;101029.78;143728;602;46008;-66
2021/07/12 08:32:07;;;;;;;5.53;4.95;;;;;;;33.58;24.47;101037.00;143731;621;47004;-65
2021/07/12 08:34:40;;;;;;;5.07;4.43;;;;;;;33.52;24.11;101036.41;143726;612;46010;-65
2021/07/12 08:37:12;;;;;;;13.48;3.87;;;;;;;33.42;24.16;101039.69;143730;590;46010;-62
2021/07/12 08:39:38;;;;;;;4.80;4.25;;;;;;;33.31;24.52;101036.50;143726;572;47007;-63
2021/07/12 08:42:05;;;;;;;4.50;3.97;;;;;;;33.40;24.61;101037.22;143727;674;47004;-62
2021/07/12 08:44:32;;;;;;;5.70;3.75;;;;;;;33.23;24.44;101031.84;143729;582;46012;-61
2021/07/12 08:46:59;;;;;;;4.62;3.50;;;;;;;33.11;24.34;101021.50;143731;613;47004;-61
2021/07/12 08:49:27;;;;;;;8.27;4.15;;;;;;;33.08;25.27;101038.91;143729;568;46006;-63
2021/07/12 08:51:53;;;;;;;10.27;4.28;;;;;;;33.19;25.25;101028.12;143731;572;47006;-60
2021/07/12 08:54:20;;;;;;;8.25;4.12;;;;;;;33.25;25.67;101022.00;143729;579;46918;-62
2021/07/12 08:56:47;;;;;;;6.40;4.22;;;;;;;33.34;24.18;101026.63;143728;637;49002;-63
2021/07/12 08:59:31;;;;;;;5.80;4.00;;;;;;;33.25;24.42;101026.75;143727;586;46008;-63
2021/07/12 09:02:09;;;;;;;5.37;4.57;;;;;;;33.21;23.97;101032.22;143731;587;47007;-61
2021/07/12 09:04:47;;;;;;;4.50;4.07;;;;;;;33.26;24.64;101032.00;143728;653;47010;-61
2021/07/12 09:07:20;;;;;;;9.30;4.12;;;;;;;33.37;26.17;101025.97;143729;617;47006;-61
2021/07/12 09:10:21;;;;;;;5.72;4.43;;;;;;;33.28;24.76;101020.50;143730;567;47008;-61
2021/07/12 09:12:52;;;;;;;6.55;3.83;;;;;;;33.34;23.45;101033.03;143729;620;47002;-62
2021/07/12 09:15:23;;;;;;;7.07;4.50;;;;;;;33.38;26.27;101024.81;143727;567;47011;-61
2021/07/12 09:17:52;;;;;;;5.93;4.70;;;;;;;33.31;27.40;101025.38;143728;729;47004;-63
2021/07/12 09:20:33;;;;;;;6.20;4.65;;;;;;;33.43;27.34;101012.63;143730;578;46023;-60
2021/07/12 09:23:18;;;;;;;9.68;4.62;;;;;;;33.48;26.89;101013.22;143733;586;47004;-61
2021/07/12 09:26:03;;;;;;;6.40;4.15;;;;;;;33.57;28.06;101010.31;143727;573;47013;-61
2021/07/12 09:28:45;;;;;;;9.38;5.18;;;;;;;33.71;28.44;101002.38;143728;566;47006;-61
2021/07/12 09:31:31;;;;;;;7.43;4.65;;;;;;;33.79;29.09;101006.22;143730;595;46019;-63
2021/07/12 09:34:01;;;;;;;7.68;5.25;;;;;;;33.76;28.64;101003.31;143732;582;47006;-61
2021/07/12 09:36:31;;;;;;;9.95;4.47;;;;;;;33.66;29.44;100994.28;143728;579;47008;-63
2021/07/12 09:38:57;;;;;;;7.07;5.00;;;;;;;33.73;27.72;100999.28;143728;587;47004;-63
2021/07/12 09:41:29;;;;;;;7.35;4.70;;;;;;;33.84;28.38;101000.41;143733;595;46004;-64
2021/07/12 09:44:02;;;;;;;7.22;4.57;;;;;;;33.89;28.40;101006.91;143730;566;47006;-64
2021/07/12 09:46:29;;;;;;;7.25;4.70;;;;;;;33.65;29.17;101014.94;143733;627;46008;-64
2021/07/12 09:49:17;;;;;;;6.68;4.60;;;;;;;33.68;28.48;101016.22;143732;588;46008;-64
2021/07/12 09:51:44;;;;;;;6.43;4.93;;;;;;;33.72;27.89;101017.13;143728;663;46008;-64
2021/07/12 09:54:20;;;;;;;22.65;5.45;;;;;;;33.80;28.73;101021.75;143732;568;47004;-64
2021/07/12 09:56:48;;;;;;;5.28;4.72;;;;;;;33.68;28.51;101017.03;143732;670;46027;-64
2021/07/12 09:59:16;;;;;;;5.22;4.60;;;;;;;33.67;27.97;101022.94;143726;614;47004;-63
2021/07/12 10:01:53;;;;;;;6.22;4.80;;;;;;;33.66;30.05;101016.56;143729;576;46918;-64
2021/07/12 10:04:21;;;;;;;5.53;4.55;;;;;;;33.70;29.58;101013.88;143731;653;47010;-71
2021/07/12 10:06:49;;;;;;;9.73;4.97;;;;;;;33.69;31.30;101012.25;143730;603;46010;-66
2021/07/12 10:09:21;;;;;;;9.10;5.00;;;;;;;33.67;30.65;101007.06;143729;597;47006;-63
2021/07/12 10:11:51;;;;;;;5.37;4.87;;;;;;;33.50;32.39;101026.81;143728;576;46006;-67
2021/07/12 10:14:18;;;;;;;7.32;4.60;;;;;;;33.47;30.32;101008.00;143731;580;46010;-71
2021/07/12 10:16:45;;;;;;;7.10;4.70;;;;;;;33.65;31.12;101002.97;143727;603;47013;-70
2021/07/12 10:19:12;;;;;;;5.28;4.78;;;;;;;33.80;31.08;101001.47;143731;602;47004;-75
2021/07/12 10:21:41;;;;;;;5.28;4.57;;;;;;;33.86;31.44;101012.00;143728;597;47008;-69
2021/07/12 10:24:09;;;;;;;6.23;4.27;;;;;;;34.04;32.05;101014.53;139327;57;10002867;-68
2021/07/12 10:26:47;;;;;;;7.20;4.43;;;;;;;34.08;32.32;101006.28;134285;57;10003329;-68
2021/07/12 10:29:21;;;;;;;8.02;4.35;;;;;;;34.12;32.24;101005.25;143729;567;46010;-68
2021/07/12 10:32:18;;;;;;;5.53;4.65;;;;;;;34.21;31.84;101001.47;143728;574;47013;-69
2021/07/12 10:34:55;;;;;;;6.65;5.05;;;;;;;34.17;32.19;100993.81;143729;579;47004;-68
2021/07/12 10:37:39;;;;;;;5.47;4.85;;;;;;;34.22;31.31;100990.00;143728;579;46009;-68
2021/07/12 10:40:08;;;;;;;6.60;4.53;;;;;;;34.32;31.21;101002.63;143730;660;47004;-69
2021/07/12 10:42:51;;;;;;;6.82;4.45;;;;;;;34.36;31.55;100999.91;143726;627;47010;-70
2021/07/12 10:45:23;;;;;;;6.37;5.35;;;;;;;34.44;31.07;100993.37;143730;611;47004;-68
2021/07/12 10:48:04;;;;;;;5.68;4.15;;;;;;;34.39;31.06;101004.78;143728;586;47008;-68
2021/07/12 10:50:48;;;;;;;5.30;4.80;;;;;;;34.37;31.65;101007.91;143731;652;47004;-69
2021/07/12 10:53:34;;;;;;;;;;;;;;;34.29;31.90;101004.13;143735;981;46008;-68
2021/07/12 10:56:10;;;;;;;7.28;4.97;;;;;;;34.22;32.24;101005.91;143734;646;47006;-69
2021/07/12 10:58:41;;;;;;;8.02;5.30;;;;;;;34.26;32.53;100998.44;143731;584;46006;-69
2021/07/12 11:01:11;;;;;;;5.43;4.93;;;;;;;34.20;32.64;101017.41;143730;576;47004;-67
2021/07/12 11:03:46;;;;;;;6.53;4.93;;;;;;;34.15;32.51;100998.94;143730;568;47012;-68
2021/07/12 11:06:20;;;;;;;6.53;4.62;;;;;;;34.27;32.56;101000.06;143728;668;47004;-68
2021/07/12 11:08:56;;;;;;;6.43;5.18;;;;;;;34.28;32.15;100996.91;143725;567;46923;-68
2021/07/12 11:11:43;;;;;;;7.18;4.62;;;;;;;34.28;32.68;100991.34;143730;629;47004;-69
2021/07/12 11:14:18;;;;;;;7.12;5.10;;;;;;;34.29;32.97;100989.37;143729;656;47010;-68
2021/07/12 11:16:47;;;;;;;6.22;4.80;;;;;;;34.15;33.06;100992.56;143731;651;46006;-67
2021/07/12 11:19:28;;;;;;;6.93;4.93;;;;;;;34.25;33.69;100985.69;143728;733;46006;-65
2021/07/12 11:22:23;;;;;;;11.52;5.30;;;;;;;34.36;33.98;100981.19;143731;575;47004;-67
2021/07/12 11:25:08;;;;;;;5.70;4.60;;;;;;;34.42;33.23;100988.19;143723;616;49010;-69
2021/07/12 11:27:44;;;;;;;6.40;4.28;;;;;;;34.20;33.37;100985.91;143729;588;47006;-68
2021/07/12 11:30:30;;;;;;;9.13;4.97;;;;;;;34.11;34.43;100986.91;143730;627;46006;-68
2021/07/12 11:32:57;;;;;;;5.78;4.57;;;;;;;34.24;33.46;100984.06;143732;568;47002;-69
2021/07/12 11:35:24;;;;;;;7.28;4.50;;;;;;;34.17;32.94;100985.47;143723;586;47012;-69
2021/07/12 11:37:51;;;;;;;7.35;4.80;;;;;;;34.15;34.63;100978.63;143730;583;47006;-68
2021/07/12 11:40:17;;;;;;;6.75;5.22;;;;;;;34.21;34.17;100976.41;143731;620;46018;-68
2021/07/12 11:42:44;;;;;;;8.25;5.05;;;;;;;34.17;32.88;100979.87;143732;570;47002;-68
2021/07/12 11:45:15;;;;;;;5.70;4.80;;;;;;;34.08;33.35;100976.44;143730;644;47012;-69
2021/07/12 11:47:53;;;;;;;6.12;4.28;;;;;;;34.11;34.76;100972.13;143731;592;47006;-70
2021/07/12 11:50:21;;;;;;;15.38;5.40;;;;;;;34.19;35.33;100962.00;143731;626;46013;-69
2021/07/12 11:52:56;;;;;;;5.80;4.87;;;;;;;34.29;35.55;100973.44;143731;569;47004;-69
2021/07/12 11:55:28;;;;;;;11.82;4.95;;;;;;;34.13;33.18;100976.22;143729;678;47010;-67
2021/07/12 11:57:58;;;;;;;8.73;4.72;;;;;;;34.11;33.16;100964.59;143726;736;48008;-67
2021/07/12 12:00:29;;;;;;;6.57;4.40;;;;;;;34.06;32.79;100961.25;143729;569;46008;-67
2021/07/12 12:03:09;;;;;;;9.30;5.37;;;;;;;34.00;33.72;100960.66;143732;682;47004;-68
2021/07/12 12:05:37;;;;;;;7.70;4.97;;;;;;;33.97;34.99;100959.41;143729;644;47010;-68
2021/07/12 12:08:06;;;;;;;6.15;4.80;;;;;;;34.10;35.44;100962.97;143727;577;47006;-67
2021/07/12 12:10:38;;;;;;;5.32;4.70;;;;;;;34.08;34.01;100956.94;143729;587;46008;-67
2021/07/12 12:13:16;;;;;;;7.05;4.57;;;;;;;34.07;34.26;100968.41;143732;577;47004;-67
2021/07/12 12:15:48;;;;;;;5.28;4.72;;;;;;;34.08;34.54;100967.25;143731;591;46925;-68
2021/07/12 12:18:20;;;;;;;15.15;5.07;;;;;;;34.01;34.59;100959.50;143727;577;47006;-68
2021/07/12 12:20:57;;;;;;;9.90;5.05;;;;;;;34.00;35.01;100969.03;143730;681;47024;-67
2021/07/12 12:23:28;;;;;;;5.50;4.62;;;;;;;34.04;34.00;100955.22;143737;582;46007;-67
2021/07/12 12:26:15;;;;;;;6.70;4.85;;;;;;;34.12;33.35;100943.09;143724;662;48008;-69
2021/07/12 12:28:45;;;;;;;8.25;4.47;;;;;;;34.17;32.05;100954.78;143728;634;47010;-68
2021/07/12 12:31:17;;;;;;;6.28;5.35;;;;;;;34.20;33.48;100956.09;143732;597;46012;-68
2021/07/12 12:34:04;;;;;;;5.10;4.60;;;;;;;34.23;34.17;100955.37;143734;577;47002;-69
2021/07/12 12:36:38;;;;;;;6.50;5.32;;;;;;;34.26;34.15;100956.63;143729;603;47005;-67
2021/07/12 12:39:19;;;;;;;9.18;4.93;;;;;;;34.27;34.35;100972.19;143730;663;47004;-68
2021/07/12 12:41:57;;;;;;;6.03;4.80;;;;;;;34.19;34.53;100957.25;143730;624;46008;-68
2021/07/12 12:44:34;;;;;;;9.23;5.00;;;;;;;34.17;34.15;100956.78;143734;670;47004;-68
2021/07/12 12:47:01;;;;;;;8.00;5.75;;;;;;;34.14;34.80;100952.75;143728;586;47008;-67
2021/07/12 12:49:34;;;;;;;8.23;4.93;;;;;;;34.18;34.95;100958.41;143731;686;47004;-67
2021/07/12 12:52:13;;;;;;;;;;;;;;;34.19;33.78;100957.25;143734;981;47009;-68
2021/07/12 12:54:46;;;;;;;6.75;5.37;;;;;;;34.20;33.88;100950.50;143737;591;47002;-67
2021/07/12 12:57:16;;;;;;;7.65;4.95;;;;;;;34.19;33.81;100956.41;143727;719;47010;-68
2021/07/12 12:59:44;;;;;;;6.50;4.70;;;;;;;34.22;30.99;100948.19;143730;573;47004;-68
2021/07/12 13:02:22;;;;;;;5.75;5.25;;;;;;;34.22;34.05;100944.56;143728;568;47006;-67
2021/07/12 13:04:50;;;;;;;5.50;5.00;;;;;;;34.20;33.81;100947.72;143733;589;47006;-69
2021/07/12 13:07:19;;;;;;;8.73;5.40;;;;;;;34.22;33.52;100950.97;143730;595;47004;-69
2021/07/12 13:09:47;;;;;;;6.22;5.05;;;;;;;34.18;35.30;100944.47;143729;649;47004;-68
2021/07/12 13:12:18;;;;;;;7.72;5.65;;;;;;;34.22;35.60;100942.59;143730;572;47008;-67
2021/07/12 13:14:48;;;;;;;6.32;5.32;;;;;;;34.22;34.93;100939.81;143730;614;47004;-68